Time;durP1;ratioP1;P1;durP2;ratioP2;P2;SDS_P1;SDS_P2;PMS_P1;PMS_P2;Temp;Humidity;BMP_temperature;BMP_pressure;BME280_temperature;BME280_humidity;BME280_pressure;Samples;Min_cycle;Max_cycle;Signal;HPM_P1;HPM_P2
2022/01/06 00:00:35;;;;;;;20.65;3.72;;;;;;;3.82;100.00;101493.28;5077377;28;20101;-49
2022/01/06 00:03:00;;;;;;;27.63;4.60;;;;;;;3.33;100.00;101402.75;5095390;28;20062;-49
2022/01/06 00:05:26;;;;;;;24.98;3.90;;;;;;;3.99;100.00;101516.84;5077091;28;20024;-49
2022/01/06 00:07:52;;;;;;;17.98;3.15;;;;;;;4.08;100.00;101502.97;5077319;28;20033;-48
2022/01/06 00:10:18;;;;;;;14.73;3.28;;;;;;;3.82;100.00;101466.41;5095123;28;20024;-53
2022/01/06 00:13:02;;;;;;;24.20;4.85;;;;;;;4.07;100.00;101506.44;5077069;28;20433;-48
2022/01/06 00:23:31;;;;;;;26.40;3.70;;;;;;;4.01;100.00;101530.72;5095153;28;20139;-53
2022/01/06 00:25:58;;;;;;;18.25;3.38;;;;;;;3.60;100.00;101460.19;5094856;28;20123;-51
2022/01/06 00:28:24;;;;;;;14.43;2.60;;;;;;;3.45;100.00;101435.78;5076666;28;20066;-47
2022/01/06 00:30:49;;;;;;;15.35;2.90;;;;;;;3.89;100.00;101523.72;5076812;28;20071;-50
2022/01/06 00:33:15;;;;;;;17.35;2.65;;;;;;;3.48;100.00;101448.81;5076572;28;20063;-50
2022/01/06 00:35:40;;;;;;;12.75;3.40;;;;;;;3.81;100.00;101509.78;5094631;28;20024;-51
2022/01/06 00:38:07;;;;;;;15.35;2.90;;;;;;;3.39;100.00;101442.72;5076773;28;20122;-47
2022/01/06 00:40:33;;;;;;;18.00;3.25;;;;;;;3.87;100.00;101528.06;5094061;28;20048;-46
2022/01/06 00:42:59;;;;;;;13.60;2.22;;;;;;;3.31;100.00;101444.41;5094419;28;20036;-49
2022/01/06 00:45:24;;;;;;;17.40;2.70;;;;;;;3.24;100.00;101441.75;5094461;28;20035;-48
2022/01/06 00:47:50;;;;;;;16.88;2.97;;;;;;;3.73;100.00;101534.03;5094592;28;20028;-48
2022/01/06 00:50:15;;;;;;;15.02;3.20;;;;;;;3.67;100.00;101547.03;5093832;28;20488;-48
2022/01/06 00:52:40;;;;;;;10.23;2.70;;;;;;;3.68;100.00;101536.59;5093501;28;20490;-49
2022/01/06 00:55:06;;;;;;;13.85;3.17;;;;;;;3.40;100.00;101487.81;5094513;28;20035;-47
2022/01/06 00:57:31;;;;;;;17.95;3.30;;;;;;;3.70;100.00;101544.44;5094051;28;20032;-48
2022/01/06 00:59:57;;;;;;;17.38;3.50;;;;;;;3.71;100.00;101535.75;5094084;28;20036;-52
2022/01/06 01:02:22;;;;;;;21.58;2.83;;;;;;;3.11;100.00;101434.72;5094448;28;20115;-46
2022/01/06 01:04:48;;;;;;;19.48;3.28;;;;;;;3.39;100.00;101479.16;5076100;28;20059;-53
2022/01/06 01:07:14;;;;;;;17.25;2.95;;;;;;;3.15;100.00;101452.09;5093944;28;20547;-49
2022/01/06 01:09:40;;;;;;;16.83;2.83;;;;;;;3.74;100.00;101556.59;5093814;28;20036;-49
2022/01/06 01:12:06;;;;;;;17.80;4.30;;;;;;;3.74;100.00;101543.56;5075819;28;20034;-52
2022/01/06 01:14:42;;;;;;;15.93;3.10;;;;;;;3.34;100.00;101486.06;5094081;28;20069;-48
2022/01/06 01:17:13;;;;;;;15.30;3.78;;;;;;;3.61;100.00;101529.63;5093858;28;20065;-48
2022/01/06 01:19:38;;;;;;;18.35;3.70;;;;;;;3.17;100.00;101482.47;5093925;28;20040;-50
2022/01/06 01:22:03;;;;;;;17.00;3.15;;;;;;;3.04;100.00;101462.41;5094171;28;20102;-49
2022/01/06 01:24:29;;;;;;;15.88;3.22;;;;;;;3.53;100.00;101562.53;5093643;28;20036;-49
2022/01/06 01:26:54;;;;;;;19.35;3.53;;;;;;;2.92;100.00;101459.69;5093794;28;20383;-49
2022/01/06 01:29:19;;;;;;;20.25;3.33;;;;;;;3.32;100.00;101534.63;5093321;28;20047;-48
2022/01/06 01:31:54;;;;;;;17.50;3.13;;;;;;;3.41;100.00;101562.44;5075215;28;20077;-51
2022/01/06 01:34:24;;;;;;;14.57;3.00;;;;;;;3.35;100.00;101565.00;5093645;28;20040;-49
2022/01/06 01:36:55;;;;;;;12.85;2.88;;;;;;;2.93;100.00;101495.25;5093536;28;20032;-51
2022/01/06 01:39:21;;;;;;;12.75;2.67;;;;;;;2.89;100.00;101490.88;5075428;28;20024;-47
2022/01/06 01:41:46;;;;;;;8.77;2.58;;;;;;;3.25;100.00;101573.56;5075490;28;20036;-49
2022/01/06 01:44:13;;;;;;;18.63;3.33;;;;;;;2.67;100.00;101486.34;5093276;28;20082;-52
2022/01/06 01:46:45;;;;;;;12.65;2.40;;;;;;;3.09;100.00;101572.56;5093199;28;20479;-50
2022/01/06 01:49:49;;;;;;;13.68;2.92;;;;;;;3.04;100.00;101568.16;5093003;28;20028;-48
2022/01/06 01:52:00;;;;;;;12.82;3.08;;;;;;;2.51;100.00;101487.88;5091967;28;20050;-50
2022/01/06 01:54:25;;;;;;;14.50;2.92;;;;;;;3.00;100.00;101592.41;5075112;28;20027;-48
2022/01/06 01:56:51;;;;;;;10.52;2.63;;;;;;;2.92;100.00;101591.47;5093483;28;20491;-44
2022/01/06 01:59:17;;;;;;;16.73;2.75;;;;;;;2.84;100.00;101584.44;5093040;28;20036;-50
2022/01/06 02:01:42;;;;;;;16.52;2.80;;;;;;;2.77;100.00;101590.41;5093191;28;20479;-51
2022/01/06 02:04:08;;;;;;;16.55;2.92;;;;;;;2.80;100.00;101577.44;5092932;28;20102;-49
2022/01/06 02:06:33;;;;;;;15.45;2.88;;;;;;;2.83;100.00;101577.47;5092936;28;20471;-50
2022/01/06 02:08:59;;;;;;;14.88;3.58;;;;;;;2.90;100.00;101574.94;5093082;28;20513;-46
2022/01/06 02:11:24;;;;;;;14.80;2.53;;;;;;;2.39;100.00;101467.00;5092978;28;20491;-48
2022/01/06 02:13:51;;;;;;;23.58;3.58;;;;;;;3.00;100.00;101580.28;5093061;28;20036;-49
2022/01/06 02:16:21;;;;;;;12.55;2.30;;;;;;;2.87;100.00;101560.19;5092813;28;20032;-49
2022/01/06 02:18:48;;;;;;;15.38;2.92;;;;;;;2.99;100.00;101572.44;5074725;28;20036;-47
2022/01/06 02:21:13;;;;;;;15.60;3.63;;;;;;;2.75;100.00;101534.06;5092970;28;20036;-49
2022/01/06 02:23:39;;;;;;;16.90;3.30;;;;;;;3.12;100.00;101588.22;5074793;28;20121;-49
2022/01/06 02:26:04;;;;;;;9.88;2.95;;;;;;;3.14;100.00;101601.22;5074925;28;20044;-50
2022/01/06 02:28:29;;;;;;;15.75;2.67;;;;;;;3.11;100.00;101602.06;5092698;28;20470;-52
2022/01/06 02:30:57;;;;;;;17.25;3.03;;;;;;;2.56;100.00;101507.03;5074435;28;20089;-47
2022/01/06 02:33:24;;;;;;;19.92;3.08;;;;;;;3.11;100.00;101593.38;5092211;28;20449;-51
2022/01/06 02:35:49;;;;;;;22.50;2.63;;;;;;;3.16;100.00;101584.75;5074757;28;20428;-48
2022/01/06 02:38:16;;;;;;;18.08;3.40;;;;;;;3.30;100.00;101592.69;5092445;28;20036;-49
2022/01/06 02:40:41;;;;;;;17.70;3.72;;;;;;;2.84;100.00;101514.25;5074629;28;20036;-52
2022/01/06 02:43:07;;;;;;;14.35;3.30;;;;;;;2.49;100.00;101435.03;5092882;28;20035;-49
2022/01/06 02:45:33;;;;;;;17.13;2.67;;;;;;;3.35;100.00;101607.50;5092273;28;20381;-47
2022/01/06 02:48:00;;;;;;;15.88;2.97;;;;;;;2.92;100.00;101531.66;5092367;28;20028;-46
2022/01/06 02:50:26;;;;;;;20.15;3.33;;;;;;;3.40;100.00;101589.31;5092544;28;20036;-51
2022/01/06 02:52:52;;;;;;;15.93;3.10;;;;;;;3.61;100.00;101619.88;5074474;28;20395;-49
2022/01/06 02:55:18;;;;;;;16.63;3.05;;;;;;;3.60;100.00;101605.09;5074228;28;20493;-49
2022/01/06 02:57:44;;;;;;;20.05;2.83;;;;;;;3.35;100.00;101547.66;5074243;28;20119;-49
2022/01/06 03:00:12;;;;;;;23.10;3.35;;;;;;;3.89;100.00;101629.63;5074446;28;20033;-46
2022/01/06 03:02:38;;;;;;;19.67;3.50;;;;;;;3.93;100.00;101618.38;5075843;28;20042;-51
2022/01/06 03:05:04;;;;;;;10.55;1.60;;;;;;;4.08;100.00;101628.91;5096651;28;20036;-47
2022/01/06 03:07:30;;;;;;;8.25;1.67;;;;;;;4.13;100.00;101631.53;5078336;28;20035;-49
2022/01/06 03:09:58;;;;;;;4.80;1.65;;;;;;;4.07;100.00;101614.13;5078112;28;20085;-51
2022/01/06 03:12:33;;;;;;;8.13;1.58;;;;;;;4.14;100.00;101628.06;5096310;28;20036;-48
2022/01/06 03:14:59;;;;;;;8.60;1.42;;;;;;;3.96;100.00;101619.28;5096106;28;20081;-48
2022/01/06 03:17:24;;;;;;;12.50;2.22;;;;;;;3.52;100.00;101547.78;5096366;28;20024;-50
2022/01/06 03:19:49;;;;;;;8.48;1.42;;;;;;;3.93;100.00;101642.69;5096222;28;20032;-51
2022/01/06 03:22:15;;;;;;;6.78;1.33;;;;;;;3.91;100.00;101652.22;5096128;28;20471;-48
2022/01/06 03:24:41;;;;;;;8.32;1.40;;;;;;;3.95;100.00;101648.78;5078045;28;20028;-51
2022/01/06 03:27:06;;;;;;;7.57;1.50;;;;;;;3.57;100.00;101553.88;5077838;28;20032;-49
2022/01/06 03:29:32;;;;;;;11.18;2.00;;;;;;;3.77;100.00;101580.06;5095806;28;20372;-53
2022/01/06 03:31:58;;;;;;;12.00;2.40;;;;;;;4.03;100.00;101645.38;5095625;28;20051;-49
2022/01/06 03:34:24;;;;;;;14.40;2.45;;;;;;;4.07;100.00;101658.41;5095966;28;20126;-54
2022/01/06 03:36:50;;;;;;;14.07;2.38;;;;;;;4.01;100.00;101636.66;5077568;28;20460;-54
2022/01/06 03:39:15;;;;;;;13.45;2.85;;;;;;;3.95;100.00;101627.06;5096046;28;20028;-51
2022/01/06 03:41:40;;;;;;;12.00;2.25;;;;;;;3.05;100.00;101486.69;5077591;28;20484;-52
2022/01/06 03:44:06;;;;;;;12.02;2.38;;;;;;;3.80;100.00;101627.81;5095525;28;20081;-50
2022/01/06 03:46:31;;;;;;;12.38;2.05;;;;;;;3.74;100.00;101637.31;5095501;28;20460;-49
2022/01/06 03:48:56;;;;;;;11.13;2.20;;;;;;;3.64;100.00;101638.13;5095652;28;20126;-52
2022/01/06 03:51:23;;;;;;;11.48;2.25;;;;;;;3.45;100.00;101636.19;5095457;28;20072;-52
2022/01/06 03:53:50;;;;;;;9.15;1.90;;;;;;;2.82;100.00;101561.88;5077242;28;20432;-52
2022/01/06 03:56:15;;;;;;;9.73;2.05;;;;;;;3.17;100.00;101648.06;5095158;28;20060;-54
2022/01/06 03:58:41;;;;;;;10.82;1.88;;;;;;;2.83;100.00;101600.88;5060466;28;20040;-51
2022/01/06 04:01:07;;;;;;;15.07;2.05;;;;;;;2.43;100.00;101548.41;5095395;28;20047;-54
2022/01/06 04:03:33;;;;;;;12.95;2.00;;;;;;;2.86;100.00;101651.19;5077289;28;20028;-57
2022/01/06 04:05:58;;;;;;;9.80;2.00;;;;;;;2.76;100.00;101645.88;5095241;28;20020;-52
2022/01/06 04:08:23;;;;;;;16.55;1.80;;;;;;;2.67;100.00;101644.88;5095293;28;20052;-53
2022/01/06 04:10:49;;;;;;;13.10;2.00;;;;;;;2.57;100.00;101636.09;5095113;28;20036;-52
2022/01/06 04:13:14;;;;;;;10.93;1.75;;;;;;;2.52;100.00;101635.16;5059722;28;20040;-46
2022/01/06 04:15:39;;;;;;;11.18;1.95;;;;;;;2.52;100.00;101639.50;5094564;28;20036;-54
2022/01/06 04:18:05;;;;;;;8.85;1.80;;;;;;;1.83;100.00;101530.34;5095006;28;20051;-52
2022/01/06 04:20:30;;;;;;;14.95;1.90;;;;;;;1.83;100.00;101548.50;5094883;28;20081;-50
2022/01/06 04:22:56;;;;;;;9.80;1.73;;;;;;;2.30;100.00;101638.34;5076528;28;20121;-53
2022/01/06 04:25:21;;;;;;;19.38;2.50;;;;;;;1.86;100.00;101566.72;5095167;28;20039;-49
2022/01/06 04:27:46;;;;;;;14.55;2.78;;;;;;;1.51;100.00;101530.75;5076561;28;20554;-50
2022/01/06 04:30:12;;;;;;;12.25;1.50;;;;;;;2.10;100.00;101642.38;5094730;28;20097;-51
2022/01/06 04:32:38;;;;;;;10.65;2.00;;;;;;;1.91;100.00;101627.38;5094651;28;20044;-52
2022/01/06 04:35:04;;;;;;;12.65;1.77;;;;;;;2.00;100.00;101656.94;5076593;28;20132;-50
2022/01/06 04:37:29;;;;;;;14.45;1.77;;;;;;;2.01;100.00;101653.50;5076516;28;20043;-50
2022/01/06 04:39:55;;;;;;;8.15;1.73;;;;;;;1.57;100.00;101556.78;5076351;28;20028;-51
2022/01/06 04:42:20;;;;;;;14.30;2.33;;;;;;;2.08;100.00;101636.28;5076340;28;20365;-53
2022/01/06 04:44:46;;;;;;;17.25;2.03;;;;;;;2.08;100.00;101652.72;5094780;28;20042;-51
2022/01/06 04:47:11;;;;;;;11.65;2.20;;;;;;;1.64;100.00;101566.41;5076596;28;20486;-47
2022/01/06 04:49:37;;;;;;;11.30;1.85;;;;;;;2.04;100.00;101647.50;5094346;28;20028;-53
2022/01/06 04:52:03;;;;;;;12.52;1.73;;;;;;;1.97;100.00;101656.03;5094330;28;20032;-51
2022/01/06 04:54:28;;;;;;;8.25;1.60;;;;;;;1.98;100.00;101653.47;5094184;28;20032;-49
2022/01/06 04:56:53;;;;;;;6.53;1.70;;;;;;;1.99;100.00;101642.22;5094158;28;20053;-49
2022/01/06 04:59:19;;;;;;;11.10;2.15;;;;;;;1.50;100.00;101565.31;5094064;28;20093;-52
2022/01/06 05:01:44;;;;;;;11.55;2.40;;;;;;;2.02;100.00;101672.53;5093927;28;20035;-50
2022/01/06 05:04:10;;;;;;;12.50;1.90;;;;;;;1.97;100.00;101645.63;5094033;28;20039;-52
2022/01/06 05:06:35;;;;;;;8.02;2.13;;;;;;;2.07;100.00;101673.50;5094179;28;20024;-53
2022/01/06 05:09:00;;;;;;;13.20;2.08;;;;;;;2.05;100.00;101659.59;5094026;28;20039;-56
2022/01/06 05:11:26;;;;;;;14.05;1.85;;;;;;;2.02;100.00;101678.59;5075717;28;20040;-53
2022/01/06 05:13:51;;;;;;;11.80;1.70;;;;;;;1.96;100.00;101664.66;5093893;28;20032;-53
2022/01/06 05:16:17;;;;;;;9.50;1.70;;;;;;;1.80;100.00;101650.56;5093519;28;20399;-50
2022/01/06 05:18:42;;;;;;;12.35;1.75;;;;;;;1.60;100.00;101633.81;5075457;28;20028;-51
2022/01/06 05:21:08;;;;;;;8.98;1.45;;;;;;;1.63;100.00;101654.63;5093817;28;20032;-52
2022/01/06 05:23:33;;;;;;;9.15;1.52;;;;;;;1.61;100.00;101672.75;5093568;28;20052;-50
2022/01/06 05:25:59;;;;;;;11.98;1.60;;;;;;;1.44;100.00;101679.34;5093590;28;20032;-49
2022/01/06 05:28:24;;;;;;;8.55;1.88;;;;;;;1.33;100.00;101667.91;5075203;28;20126;-51
2022/01/06 05:30:50;;;;;;;8.07;1.77;;;;;;;0.95;100.00;101617.94;5093480;28;20110;-51
2022/01/06 05:33:16;;;;;;;17.98;2.38;;;;;;;0.29;100.00;101513.88;5093396;28;20044;-53
2022/01/06 05:35:41;;;;;;;8.55;1.55;;;;;;;1.12;100.00;101677.88;5093297;28;20032;-50
2022/01/06 05:38:07;;;;;;;6.78;1.90;;;;;;;1.04;100.00;101676.88;5093277;28;20036;-52
2022/01/06 05:40:32;;;;;;;10.85;1.98;;;;;;;0.62;100.00;101624.16;5075578;28;20115;-49
2022/01/06 05:42:58;;;;;;;17.75;1.85;;;;;;;0.90;100.00;101675.72;5093319;28;20484;-52
2022/01/06 05:45:24;;;;;;;14.98;2.22;;;;;;;0.35;100.00;101590.84;5093528;28;20531;-50
2022/01/06 05:47:49;;;;;;;17.95;3.13;;;;;;;0.39;100.00;101608.16;5078576;28;20544;-51
2022/01/06 05:50:15;;;;;;;10.57;2.05;;;;;;;0.74;100.00;101689.19;5090690;28;20114;-52
2022/01/06 05:52:40;;;;;;;16.40;1.90;;;;;;;0.68;100.00;101686.47;5113407;28;20023;-48
2022/01/06 05:55:07;;;;;;;9.85;1.92;;;;;;;0.62;100.00;101694.13;5090518;28;20036;-50
2022/01/06 05:57:32;;;;;;;14.63;1.85;;;;;;;0.57;100.00;101694.03;5108815;28;20080;-48
2022/01/06 05:59:58;;;;;;;16.00;2.50;;;;;;;0.45;100.00;101678.22;5095507;28;20035;-47
2022/01/06 06:02:23;;;;;;;10.68;1.55;;;;;;;0.08;100.00;101629.94;5104067;28;20036;-48
2022/01/06 06:04:48;;;;;;;13.68;3.00;;;;;;;0.44;100.00;101704.94;5093047;28;20186;-47
2022/01/06 06:07:14;;;;;;;9.20;2.38;;;;;;;0.39;100.00;101693.63;5094822;28;20036;-48
2022/01/06 06:09:39;;;;;;;15.50;2.17;;;;;;;-0.16;100.00;101609.53;5093741;28;20036;-50
2022/01/06 06:12:06;;;;;;;10.15;2.13;;;;;;;-0.17;100.00;101625.03;5092607;28;20471;-48
2022/01/06 06:14:32;;;;;;;12.38;2.38;;;;;;;-0.35;100.00;101601.31;5075983;28;20040;-51
2022/01/06 06:16:57;;;;;;;11.15;2.33;;;;;;;-0.16;100.00;101635.41;5093641;28;20043;-49
2022/01/06 06:19:22;;;;;;;17.48;3.40;;;;;;;0.22;100.00;101713.09;5079775;28;20637;-48
2022/01/06 06:21:48;;;;;;;15.60;2.60;;;;;;;-0.25;100.00;101640.38;5074458;28;20032;-50
2022/01/06 06:24:14;;;;;;;9.13;2.40;;;;;;;-0.35;100.00;101622.03;5096917;28;20575;-49
2022/01/06 06:26:39;;;;;;;12.02;2.53;;;;;;;0.16;100.00;101720.72;5101130;28;20032;-52
2022/01/06 06:29:05;;;;;;;11.63;2.80;;;;;;;0.10;100.00;101723.16;5112992;28;20493;-50
2022/01/06 06:31:30;;;;;;;15.32;2.67;;;;;;;-0.40;100.00;101636.53;5087627;28;20040;-52
2022/01/06 06:33:55;;;;;;;12.52;3.30;;;;;;;-0.10;100.00;101704.56;5092342;28;20055;-47
2022/01/06 06:36:21;;;;;;;13.07;2.80;;;;;;;-0.46;100.00;101652.78;5075419;28;20040;-50
2022/01/06 06:38:46;;;;;;;16.50;3.05;;;;;;;0.04;100.00;101734.22;5092277;28;20411;-52
2022/01/06 06:41:11;;;;;;;15.38;2.67;;;;;;;-0.41;100.00;101663.25;5093455;28;20046;-51
2022/01/06 06:43:37;;;;;;;13.98;3.40;;;;;;;-0.07;100.00;101731.41;5092050;28;20032;-50
2022/01/06 06:46:02;;;;;;;6.38;2.28;;;;;;;-0.12;100.00;101730.38;5092469;28;20051;-52
2022/01/06 06:48:27;;;;;;;12.82;2.90;;;;;;;-0.03;100.00;101750.47;5075286;28;20537;-51
2022/01/06 06:50:53;;;;;;;14.52;2.58;;;;;;;-0.24;100.00;101724.03;5094509;28;20126;-52
2022/01/06 06:53:18;;;;;;;13.32;3.10;;;;;;;-0.13;100.00;101739.00;5112591;28;20300;-49
2022/01/06 06:55:44;;;;;;;14.00;3.22;;;;;;;-0.64;100.00;101658.34;5112713;28;20501;-50
2022/01/06 06:58:09;;;;;;;12.75;2.13;;;;;;;-0.66;100.00;101662.63;5094040;28;20035;-49
2022/01/06 07:00:35;;;;;;;12.88;2.88;;;;;;;-0.67;100.00;101649.63;5112701;28;20031;-51
2022/01/06 07:03:00;;;;;;;16.67;3.60;;;;;;;-0.35;100.00;101722.91;5112528;28;20466;-53
2022/01/06 07:05:26;;;;;;;9.80;3.20;;;;;;;-0.20;100.00;101742.25;5112721;28;20073;-53
2022/01/06 07:07:52;;;;;;;12.90;3.70;;;;;;;-0.21;100.00;101756.06;5112599;28;20032;-52
2022/01/06 07:10:17;;;;;;;7.60;2.88;;;;;;;-0.82;100.00;101647.56;5077269;28;20110;-49
2022/01/06 07:12:43;;;;;;;10.77;3.50;;;;;;;-0.25;100.00;101746.44;5112276;28;20176;-51
2022/01/06 07:15:11;;;;;;;19.42;4.15;;;;;;;-0.24;100.00;101747.34;5094049;28;20383;-52
2022/01/06 07:17:36;;;;;;;15.57;3.65;;;;;;;-0.77;100.00;101658.00;5111669;28;20035;-52
2022/01/06 07:20:03;;;;;;;9.10;3.35;;;;;;;-0.26;100.00;101760.22;5093301;28;20140;-53
2022/01/06 07:22:28;;;;;;;12.63;3.47;;;;;;;-0.25;100.00;101745.56;5093939;28;20052;-50
2022/01/06 07:24:53;;;;;;;8.07;3.38;;;;;;;-0.63;100.00;101687.66;5112022;28;20042;-52
2022/01/06 07:27:19;;;;;;;12.70;4.20;;;;;;;-0.69;100.00;101682.34;5093816;28;20474;-53
2022/01/06 07:29:44;;;;;;;13.77;3.28;;;;;;;-0.83;100.00;101655.25;5112503;28;20479;-50
2022/01/06 07:32:09;;;;;;;16.25;3.85;;;;;;;-0.21;100.00;101762.94;5094148;28;20139;-55
2022/01/06 07:34:35;;;;;;;18.25;3.88;;;;;;;-0.59;100.00;101690.41;5112459;28;20067;-50
2022/01/06 07:37:00;;;;;;;14.43;4.30;;;;;;;-0.15;100.00;101750.16;5112384;28;20050;-52
2022/01/06 07:39:26;;;;;;;17.88;4.82;;;;;;;-0.40;100.00;101694.31;5112470;28;20050;-53
2022/01/06 07:41:52;;;;;;;14.15;3.97;;;;;;;0.04;100.00;101765.28;5094163;28;20072;-48
2022/01/06 07:44:17;;;;;;;18.55;5.10;;;;;;;-0.09;100.00;101748.56;5112267;28;20059;-51
2022/01/06 07:46:45;;;;;;;12.05;4.15;;;;;;;0.02;100.00;101766.97;5112217;28;20039;-52
2022/01/06 07:49:11;;;;;;;17.73;4.35;;;;;;;-0.01;100.00;101777.25;5095331;28;20036;-48
2022/01/06 07:51:36;;;;;;;17.92;4.93;;;;;;;-0.15;100.00;101751.03;5115830;28;20035;-51
2022/01/06 07:54:02;;;;;;;21.65;6.25;;;;;;;-0.25;100.00;101737.81;5097434;28;20027;-52
2022/01/06 07:56:27;;;;;;;17.83;5.90;;;;;;;-0.57;100.00;101685.25;5115468;28;20039;-51
2022/01/06 07:58:53;;;;;;;19.73;6.57;;;;;;;-0.12;100.00;101787.31;5115928;28;20039;-51
2022/01/06 08:01:19;;;;;;;18.80;5.55;;;;;;;-0.54;100.00;101698.25;5115858;28;20063;-51
2022/01/06 08:03:44;;;;;;;16.45;5.28;;;;;;;-0.03;100.00;101789.28;5115723;28;20041;-50
2022/01/06 08:06:11;;;;;;;15.30;5.03;;;;;;;-0.02;100.00;101797.06;5097470;28;20078;-52
2022/01/06 08:08:37;;;;;;;14.23;4.82;;;;;;;-0.04;100.00;101785.81;5096984;28;20115;-46
2022/01/06 08:11:03;;;;;;;16.52;5.38;;;;;;;-0.01;100.00;101787.59;5105178;28;20122;-49
2022/01/06 08:13:28;;;;;;;19.92;5.18;;;;;;;-0.41;100.00;101726.22;5115131;28;20062;-52
2022/01/06 08:15:54;;;;;;;18.77;6.38;;;;;;;-0.33;100.00;101731.56;5115332;28;20040;-51
2022/01/06 08:18:19;;;;;;;19.65;5.82;;;;;;;0.11;100.00;101815.50;5095500;28;20108;-53
2022/01/06 08:20:44;;;;;;;16.65;5.80;;;;;;;0.18;100.00;101807.03;5095887;28;20409;-52
2022/01/06 08:23:10;;;;;;;16.80;5.80;;;;;;;0.23;100.00;101806.34;5096116;28;20051;-49
2022/01/06 08:25:36;;;;;;;21.75;5.85;;;;;;;0.37;100.00;101802.38;5095798;28;20064;-51
2022/01/06 08:28:02;;;;;;;13.85;4.25;;;;;;;0.51;100.00;101802.69;5114396;28;20118;-51
2022/01/06 08:30:28;;;;;;;21.60;4.78;;;;;;;0.68;100.00;101801.38;5114120;28;20060;-49
2022/01/06 08:32:55;;;;;;;14.88;4.43;;;;;;;0.41;100.00;101717.84;5079030;28;20043;-50
2022/01/06 08:35:23;;;;;;;19.08;4.65;;;;;;;0.67;100.00;101740.03;5114147;28;20040;-55
2022/01/06 08:37:49;;;;;;;16.08;4.57;;;;;;;1.10;100.00;101797.16;5096134;28;20493;-52
2022/01/06 08:40:14;;;;;;;15.05;4.60;;;;;;;0.82;100.00;101726.50;5114092;28;20035;-52
2022/01/06 08:42:40;;;;;;;17.55;3.92;;;;;;;0.94;100.00;101734.53;5114108;28;20031;-51
2022/01/06 08:45:06;;;;;;;14.32;4.18;;;;;;;0.97;100.00;101714.75;5113917;28;20122;-49
2022/01/06 08:47:31;;;;;;;19.73;4.80;;;;;;;1.60;100.00;101795.56;5095666;28;20039;-51
2022/01/06 08:49:57;;;;;;;13.50;5.00;;;;;;;1.83;100.00;101819.34;5113703;28;20161;-50
2022/01/06 08:52:22;;;;;;;20.63;5.93;;;;;;;1.92;100.00;101810.84;5095281;28;20479;-49
2022/01/06 08:54:48;;;;;;;24.52;5.97;;;;;;;1.49;100.00;101729.59;5113271;28;20032;-51
2022/01/06 08:57:14;;;;;;;16.60;4.93;;;;;;;1.69;100.00;101748.16;5113039;28;20031;-49
2022/01/06 08:59:40;;;;;;;18.05;5.68;;;;;;;2.08;100.00;101812.88;5112776;28;20042;-52
2022/01/06 09:02:05;;;;;;;14.27;5.22;;;;;;;1.86;100.00;101756.22;5095034;28;20023;-52
2022/01/06 09:04:30;;;;;;;27.88;7.05;;;;;;;2.28;100.00;101817.56;5095021;28;20034;-52
2022/01/06 09:06:58;;;;;;;23.60;6.25;;;;;;;1.92;100.00;101723.47;5112408;28;20042;-49
2022/01/06 09:09:24;;;;;;;17.75;5.55;;;;;;;2.03;100.00;101732.31;5112454;28;20114;-51
2022/01/06 09:11:49;;;;;;;15.90;5.30;;;;;;;2.03;100.00;101731.41;5112820;28;20122;-51
2022/01/06 09:14:14;;;;;;;22.73;5.90;;;;;;;2.31;100.00;101784.72;5094288;28;20035;-51
2022/01/06 09:16:40;;;;;;;14.27;4.95;;;;;;;2.50;100.00;101807.53;5106383;28;20028;-48
2022/01/06 09:19:05;;;;;;;17.10;4.68;;;;;;;1.99;100.00;101722.69;5083692;28;20027;-50
2022/01/06 09:21:31;;;;;;;22.30;5.07;;;;;;;2.05;100.00;101738.38;5105733;28;20365;-45
2022/01/06 09:23:59;;;;;;;22.20;4.57;;;;;;;2.37;100.00;101801.25;5109123;28;20024;-52
2022/01/06 09:26:25;;;;;;;21.58;4.35;;;;;;;2.38;100.00;101802.13;5096373;28;20041;-53
2022/01/06 09:28:50;;;;;;;15.10;4.82;;;;;;;2.37;100.00;101824.63;5094746;28;20114;-48
2022/01/06 09:31:15;;;;;;;22.52;4.05;;;;;;;2.21;100.00;101796.66;5090662;28;20454;-49
2022/01/06 09:33:41;;;;;;;17.10;4.07;;;;;;;2.33;100.00;101799.47;5092653;28;20450;-51
2022/01/06 09:36:06;;;;;;;16.00;3.88;;;;;;;2.17;100.00;101754.16;5090965;28;20434;-50
2022/01/06 09:38:32;;;;;;;27.48;3.92;;;;;;;2.46;100.00;101798.78;5091613;28;20054;-52
2022/01/06 09:41:03;;;;;;;20.50;4.20;;;;;;;2.64;100.00;101819.88;5087837;28;20082;-48
2022/01/06 09:43:30;;;;;;;18.17;4.35;;;;;;;2.71;100.00;101824.34;5085071;28;20064;-51
2022/01/06 09:45:56;;;;;;;15.18;3.97;;;;;;;2.39;100.00;101747.59;5090246;28;20552;-52
2022/01/06 09:48:22;;;;;;;13.35;3.95;;;;;;;2.72;100.00;101802.66;5087242;28;20111;-53
2022/01/06 09:50:48;;;;;;;12.25;4.25;;;;;;;2.86;100.00;101818.44;5090871;28;20059;-48
2022/01/06 09:53:13;;;;;;;15.07;3.88;;;;;;;2.87;100.00;101819.34;5091864;28;20064;-48
2022/01/06 09:55:40;;;;;;;18.85;4.40;;;;;;;2.42;100.00;101724.25;5091908;28;20082;-48
2022/01/06 09:58:06;;;;;;;16.80;4.47;;;;;;;3.07;100.00;101821.38;5090928;28;20081;-47
2022/01/06 10:00:33;;;;;;;15.55;4.03;;;;;;;3.17;100.00;101823.25;5091958;28;20036;-48
2022/01/06 10:03:01;;;;;;;18.17;4.18;;;;;;;2.82;100.00;101746.47;5091668;28;20036;-48
2022/01/06 10:05:46;;;;;;;15.93;4.00;;;;;;;3.46;100.00;101826.22;5091691;28;20078;-47
2022/01/06 10:08:13;;;;;;;19.08;4.07;;;;;;;3.59;100.00;101802.06;5088413;28;20035;-48
2022/01/06 10:10:40;;;;;;;12.68;3.63;;;;;;;4.03;100.00;101818.16;5090867;28;20036;-47
2022/01/06 10:13:09;;;;;;;16.05;3.80;;;;;;;4.30;100.00;101820.16;5090573;28;20028;-47
2022/01/06 10:15:39;;;;;;;19.98;4.43;;;;;;;4.51;100.00;101809.91;5087071;28;20064;-48
2022/01/06 10:18:12;;;;;;;14.95;3.42;;;;;;;4.73;100.00;101821.38;5090188;28;20341;-48
2022/01/06 10:20:37;;;;;;;12.40;3.20;;;;;;;4.44;100.00;101741.19;5090687;28;20025;-49
2022/01/06 10:23:10;;;;;;;15.25;3.40;;;;;;;4.84;100.00;101804.94;5085450;28;20062;-47
2022/01/06 10:25:38;;;;;;;18.80;3.13;;;;;;;5.02;100.00;101818.06;5091526;28;20544;-48
2022/01/06 10:28:17;;;;;;;13.75;3.25;;;;;;;5.03;100.00;101804.16;5091614;28;20036;-47
2022/01/06 10:30:48;;;;;;;13.38;2.35;;;;;;;5.19;100.00;101823.41;5089934;28;20040;-50
2022/01/06 10:33:35;;;;;;;11.63;3.10;;;;;;;4.97;100.00;101736.28;5099150;28;20055;-47
2022/01/06 10:36:08;;;;;;;9.25;2.35;;;;;;;5.39;100.00;101800.00;5096699;28;20075;-47
2022/01/06 10:38:33;;;;;;;13.77;2.85;;;;;;;5.27;100.00;101760.78;5093650;28;20055;-49
2022/01/06 10:41:13;;;;;;;12.20;1.92;;;;;;;5.66;100.00;101815.78;5093403;28;20423;-49
2022/01/06 10:43:38;;;;;;;8.05;2.42;;;;;;;5.67;100.00;101796.59;5111741;28;20038;-46
2022/01/06 10:46:04;;;;;;;13.63;2.20;;;;;;;5.98;100.00;101831.56;5112110;28;20031;-51
2022/01/06 10:48:29;;;;;;;10.13;3.22;;;;;;;5.94;100.00;101829.78;5111785;28;20584;-46
2022/01/06 10:51:00;;;;;;;11.55;4.10;;;;;;;5.90;100.00;101831.53;5093302;28;20036;-51
2022/01/06 10:53:25;;;;;;;11.40;2.40;;;;;;;5.82;100.00;101825.38;5111473;28;20110;-47
2022/01/06 10:55:51;;;;;;;15.27;2.60;;;;;;;5.87;100.00;101838.47;5111448;28;20032;-48
2022/01/06 10:58:22;;;;;;;8.38;2.88;;;;;;;5.47;100.00;101743.44;5111791;28;20074;-48
2022/01/06 11:00:49;;;;;;;13.07;2.60;;;;;;;5.90;100.00;101823.69;5111524;28;20459;-47
2022/01/06 11:03:16;;;;;;;9.18;2.08;;;;;;;5.52;100.00;101752.16;5111309;28;20039;-48
2022/01/06 11:06:03;;;;;;;10.32;2.40;;;;;;;6.06;100.00;101837.66;5092971;28;20062;-46
2022/01/06 11:08:30;;;;;;;12.05;2.55;;;;;;;6.16;100.00;101837.66;5110888;28;20123;-48
2022/01/06 11:13:33;;;;;;;8.05;1.88;;;;;;;6.23;100.00;101859.47;5111355;28;20138;-49
2022/01/06 11:15:58;;;;;;;5.13;1.75;;;;;;;6.02;100.00;101815.00;5111654;28;20462;-51
2022/01/06 11:18:24;;;;;;;7.32;2.15;;;;;;;6.14;100.00;101844.66;5110944;28;20039;-51
2022/01/06 11:20:49;;;;;;;8.52;2.08;;;;;;;5.93;100.00;101800.19;5111696;28;20031;-50
2022/01/06 11:23:20;;;;;;;10.68;2.08;;;;;;;5.88;100.00;101790.59;5094245;28;20027;-49